sensor_id;sensor_type;location;lat;lon;timestamp;pressure;altitude;pressure_sealevel;temperature;humidity
72685;BME280;61365;52.162;4.500;2022-12-18T00:01:27;102757.84;;;-3.42;97.16
72685;BME280;61365;52.162;4.500;2022-12-18T00:04:00;102748.22;;;-3.45;96.31
72685;BME280;61365;52.162;4.500;2022-12-18T00:06:29;102754.47;;;-3.62;97.00
72685;BME280;61365;52.162;4.500;2022-12-18T00:08:57;102756.28;;;-3.51;97.35
72685;BME280;61365;52.162;4.500;2022-12-18T00:11:27;102751.16;;;-3.51;97.25
72685;BME280;61365;52.162;4.500;2022-12-18T00:13:56;102752.88;;;-3.30;97.35
72685;BME280;61365;52.162;4.500;2022-12-18T00:16:25;102748.91;;;-3.27;97.01
72685;BME280;61365;52.162;4.500;2022-12-18T00:18:55;102741.47;;;-3.24;96.61
72685;BME280;61365;52.162;4.500;2022-12-18T00:21:27;102752.50;;;-3.25;95.41
72685;BME280;61365;52.162;4.500;2022-12-18T00:23:55;102755.34;;;-3.32;96.17
72685;BME280;61365;52.162;4.500;2022-12-18T00:26:24;102751.31;;;-3.39;96.84
72685;BME280;61365;52.162;4.500;2022-12-18T00:28:52;102742.94;;;-3.47;96.95
72685;BME280;61365;52.162;4.500;2022-12-18T00:31:22;102735.25;;;-3.47;97.07
72685;BME280;61365;52.162;4.500;2022-12-18T00:33:50;102748.94;;;-3.56;97.50
72685;BME280;61365;52.162;4.500;2022-12-18T00:36:20;102739.50;;;-3.47;98.08
72685;BME280;61365;52.162;4.500;2022-12-18T00:38:49;102745.19;;;-3.41;97.90
72685;BME280;61365;52.162;4.500;2022-12-18T00:41:17;102734.47;;;-3.56;97.91
72685;BME280;61365;52.162;4.500;2022-12-18T00:44:03;102740.59;;;-3.64;97.56
72685;BME280;61365;52.162;4.500;2022-12-18T00:46:31;102744.81;;;-3.65;97.94
72685;BME280;61365;52.162;4.500;2022-12-18T00:48:58;102743.59;;;-3.49;97.71
72685;BME280;61365;52.162;4.500;2022-12-18T00:51:24;102749.28;;;-3.43;97.19
72685;BME280;61365;52.162;4.500;2022-12-18T00:53:51;102755.06;;;-3.35;97.04
72685;BME280;61365;52.162;4.500;2022-12-18T00:56:22;102751.50;;;-3.67;96.42
72685;BME280;61365;52.162;4.500;2022-12-18T00:58:49;102752.78;;;-3.62;97.18
72685;BME280;61365;52.162;4.500;2022-12-18T01:01:16;102753.25;;;-3.66;97.08
72685;BME280;61365;52.162;4.500;2022-12-18T01:03:43;102756.19;;;-3.71;97.79
72685;BME280;61365;52.162;4.500;2022-12-18T01:06:12;102766.47;;;-3.71;97.59
72685;BME280;61365;52.162;4.500;2022-12-18T01:08:40;102760.56;;;-3.70;98.02
72685;BME280;61365;52.162;4.500;2022-12-18T01:11:08;102769.94;;;-3.71;97.59
72685;BME280;61365;52.162;4.500;2022-12-18T01:13:40;102765.84;;;-3.69;97.53
72685;BME280;61365;52.162;4.500;2022-12-18T01:16:07;102759.59;;;-3.52;97.49
72685;BME280;61365;52.162;4.500;2022-12-18T01:18:35;102766.59;;;-3.40;96.74
72685;BME280;61365;52.162;4.500;2022-12-18T01:21:06;102758.34;;;-3.47;96.63
72685;BME280;61365;52.162;4.500;2022-12-18T01:23:34;102757.59;;;-3.45;96.28
72685;BME280;61365;52.162;4.500;2022-12-18T01:26:07;102764.66;;;-3.72;96.49
72685;BME280;61365;52.162;4.500;2022-12-18T01:28:35;102755.25;;;-3.82;97.50
72685;BME280;61365;52.162;4.500;2022-12-18T01:31:30;102767.31;;;-3.81;97.36
72685;BME280;61365;52.162;4.500;2022-12-18T01:33:57;102771.59;;;-3.71;97.50
72685;BME280;61365;52.162;4.500;2022-12-18T01:36:36;102764.47;;;-3.84;96.88
72685;BME280;61365;52.162;4.500;2022-12-18T01:39:06;102762.84;;;-3.84;97.11
72685;BME280;61365;52.162;4.500;2022-12-18T01:41:34;102768.41;;;-3.69;97.09
72685;BME280;61365;52.162;4.500;2022-12-18T01:44:53;102773.88;;;-3.74;96.94
72685;BME280;61365;52.162;4.500;2022-12-18T01:47:44;102772.34;;;-3.72;96.38
72685;BME280;61365;52.162;4.500;2022-12-18T01:55:43;102791.25;;;-3.91;96.82
72685;BME280;61365;52.162;4.500;2022-12-18T01:58:12;102790.00;;;-4.05;97.85
72685;BME280;61365;52.162;4.500;2022-12-18T02:00:39;102790.97;;;-3.94;97.87
72685;BME280;61365;52.162;4.500;2022-12-18T02:03:07;102782.78;;;-3.71;98.03
72685;BME280;61365;52.162;4.500;2022-12-18T02:05:50;102795.69;;;-3.80;97.31
72685;BME280;61365;52.162;4.500;2022-12-18T02:08:34;102802.25;;;-3.73;96.96
72685;BME280;61365;52.162;4.500;2022-12-18T02:14:01;102812.16;;;-3.67;95.89
72685;BME280;61365;52.162;4.500;2022-12-18T02:26:27;102793.81;;;-4.10;97.04
72685;BME280;61365;52.162;4.500;2022-12-18T02:29:29;102779.69;;;-4.15;96.85
72685;BME280;61365;52.162;4.500;2022-12-18T02:32:04;102793.75;;;-4.01;97.71
72685;BME280;61365;52.162;4.500;2022-12-18T02:34:38;102787.19;;;-4.08;97.00
72685;BME280;61365;52.162;4.500;2022-12-18T02:37:09;102783.28;;;-3.94;97.10
72685;BME280;61365;52.162;4.500;2022-12-18T02:39:41;102768.16;;;-3.91;96.96
72685;BME280;61365;52.162;4.500;2022-12-18T02:42:11;102759.16;;;-3.96;96.38
72685;BME280;61365;52.162;4.500;2022-12-18T02:44:43;102762.97;;;-4.01;95.39
72685;BME280;61365;52.162;4.500;2022-12-18T02:47:13;102758.09;;;-3.79;95.63
72685;BME280;61365;52.162;4.500;2022-12-18T02:50:02;102747.78;;;-3.89;94.99
72685;BME280;61365;52.162;4.500;2022-12-18T03:07:55;102747.53;;;-4.50;97.77
72685;BME280;61365;52.162;4.500;2022-12-18T03:10:28;102749.25;;;-4.40;97.94
72685;BME280;61365;52.162;4.500;2022-12-18T03:13:18;102740.41;;;-4.44;97.23
72685;BME280;61365;52.162;4.500;2022-12-18T03:15:53;102739.00;;;-4.21;97.15
72685;BME280;61365;52.162;4.500;2022-12-18T03:18:30;102732.53;;;-4.17;96.93
72685;BME280;61365;52.162;4.500;2022-12-18T03:21:04;102740.78;;;-4.30;96.12
72685;BME280;61365;52.162;4.500;2022-12-18T03:23:36;102742.53;;;-4.10;95.67
72685;BME280;61365;52.162;4.500;2022-12-18T03:26:10;102738.47;;;-4.46;94.98
72685;BME280;61365;52.162;4.500;2022-12-18T03:28:43;102736.78;;;-4.65;96.09
72685;BME280;61365;52.162;4.500;2022-12-18T03:31:18;102734.44;;;-4.72;96.54
72685;BME280;61365;52.162;4.500;2022-12-18T03:33:54;102739.56;;;-4.53;96.42
72685;BME280;61365;52.162;4.500;2022-12-18T03:36:23;102741.88;;;-4.56;96.61
72685;BME280;61365;52.162;4.500;2022-12-18T03:38:51;102732.56;;;-4.64;96.10
72685;BME280;61365;52.162;4.500;2022-12-18T03:41:31;102728.56;;;-4.33;96.34
72685;BME280;61365;52.162;4.500;2022-12-18T03:44:12;102728.63;;;-4.61;95.84
72685;BME280;61365;52.162;4.500;2022-12-18T03:47:24;102713.06;;;-4.54;95.44
72685;BME280;61365;52.162;4.500;2022-12-18T03:56:04;102704.69;;;-4.61;96.83
72685;BME280;61365;52.162;4.500;2022-12-18T03:58:32;102707.91;;;-4.73;97.13
72685;BME280;61365;52.162;4.500;2022-12-18T04:01:05;102708.66;;;-4.74;96.70
72685;BME280;61365;52.162;4.500;2022-12-18T04:03:36;102715.03;;;-4.79;96.42
72685;BME280;61365;52.162;4.500;2022-12-18T04:06:04;102718.22;;;-4.82;96.67
72685;BME280;61365;52.162;4.500;2022-12-18T04:08:32;102724.50;;;-4.78;96.87
72685;BME280;61365;52.162;4.500;2022-12-18T04:11:01;102717.50;;;-4.89;96.37
72685;BME280;61365;52.162;4.500;2022-12-18T04:13:31;102721.75;;;-4.71;97.53
72685;BME280;61365;52.162;4.500;2022-12-18T04:15:59;102722.66;;;-4.51;96.71
72685;BME280;61365;52.162;4.500;2022-12-18T04:18:25;102735.53;;;-4.60;96.58
72685;BME280;61365;52.162;4.500;2022-12-18T04:20:52;102731.53;;;-4.67;96.87
72685;BME280;61365;52.162;4.500;2022-12-18T04:23:18;102725.75;;;-4.55;96.82
72685;BME280;61365;52.162;4.500;2022-12-18T04:25:46;102727.84;;;-4.60;95.64
72685;BME280;61365;52.162;4.500;2022-12-18T04:28:14;102730.69;;;-4.76;95.08
72685;BME280;61365;52.162;4.500;2022-12-18T04:30:40;102730.38;;;-4.79;94.82
72685;BME280;61365;52.162;4.500;2022-12-18T04:33:13;102724.94;;;-4.73;95.13
72685;BME280;61365;52.162;4.500;2022-12-18T04:35:40;102727.72;;;-4.61;95.54
72685;BME280;61365;52.162;4.500;2022-12-18T04:38:08;102723.97;;;-4.84;94.83
72685;BME280;61365;52.162;4.500;2022-12-18T04:40:36;102740.44;;;-4.72;94.98
72685;BME280;61365;52.162;4.500;2022-12-18T04:43:03;102734.34;;;-4.83;95.00
72685;BME280;61365;52.162;4.500;2022-12-18T04:45:31;102738.28;;;-4.86;94.93
72685;BME280;61365;52.162;4.500;2022-12-18T04:47:59;102738.69;;;-5.09;94.55
72685;BME280;61365;52.162;4.500;2022-12-18T04:50:27;102734.28;;;-4.93;95.47
72685;BME280;61365;52.162;4.500;2022-12-18T04:52:54;102723.81;;;-4.86;95.96
72685;BME280;61365;52.162;4.500;2022-12-18T04:55:20;102722.22;;;-4.75;95.48
72685;BME280;61365;52.162;4.500;2022-12-18T04:57:52;102727.44;;;-4.64;94.23
72685;BME280;61365;52.162;4.500;2022-12-18T05:00:19;102726.28;;;-4.68;94.13
72685;BME280;61365;52.162;4.500;2022-12-18T05:02:45;102726.53;;;-4.84;94.58
72685;BME280;61365;52.162;4.500;2022-12-18T05:05:12;102717.16;;;-4.84;94.03
72685;BME280;61365;52.162;4.500;2022-12-18T05:07:38;102723.53;;;-4.89;93.92
72685;BME280;61365;52.162;4.500;2022-12-18T05:10:05;102727.75;;;-4.89;94.67
72685;BME280;61365;52.162;4.500;2022-12-18T05:12:32;102731.47;;;-5.05;94.34
72685;BME280;61365;52.162;4.500;2022-12-18T05:14:59;102739.22;;;-4.94;94.22
72685;BME280;61365;52.162;4.500;2022-12-18T05:17:25;102733.50;;;-4.92;93.33
72685;BME280;61365;52.162;4.500;2022-12-18T05:19:51;102731.09;;;-4.90;93.49
72685;BME280;61365;52.162;4.500;2022-12-18T05:22:18;102743.94;;;-4.99;94.06
72685;BME280;61365;52.162;4.500;2022-12-18T05:24:44;102731.19;;;-5.17;93.94
72685;BME280;61365;52.162;4.500;2022-12-18T05:27:10;102727.81;;;-5.26;94.58
72685;BME280;61365;52.162;4.500;2022-12-18T05:29:37;102720.13;;;-5.26;94.96
72685;BME280;61365;52.162;4.500;2022-12-18T05:32:03;102719.94;;;-5.19;95.18
72685;BME280;61365;52.162;4.500;2022-12-18T05:34:30;102720.25;;;-5.24;95.22
72685;BME280;61365;52.162;4.500;2022-12-18T05:36:57;102710.78;;;-5.25;95.35
72685;BME280;61365;52.162;4.500;2022-12-18T05:39:23;102711.16;;;-5.40;94.81
72685;BME280;61365;52.162;4.500;2022-12-18T05:41:49;102696.84;;;-5.38;94.64
72685;BME280;61365;52.162;4.500;2022-12-18T05:44:16;102702.88;;;-5.09;95.10
72685;BME280;61365;52.162;4.500;2022-12-18T05:46:42;102698.94;;;-5.06;94.67
72685;BME280;61365;52.162;4.500;2022-12-18T05:49:09;102709.03;;;-5.07;94.49
72685;BME280;61365;52.162;4.500;2022-12-18T05:51:35;102705.59;;;-5.17;93.09
72685;BME280;61365;52.162;4.500;2022-12-18T05:54:01;102707.81;;;-5.02;93.08
72685;BME280;61365;52.162;4.500;2022-12-18T05:56:28;102708.97;;;-5.27;92.87
72685;BME280;61365;52.162;4.500;2022-12-18T05:58:54;102712.53;;;-5.44;93.57
72685;BME280;61365;52.162;4.500;2022-12-18T06:01:23;102708.72;;;-5.30;93.92
72685;BME280;61365;52.162;4.500;2022-12-18T06:03:52;102706.66;;;-5.43;93.96
72685;BME280;61365;52.162;4.500;2022-12-18T06:06:21;102705.63;;;-5.53;94.13
72685;BME280;61365;52.162;4.500;2022-12-18T06:08:49;102703.59;;;-5.38;93.22
72685;BME280;61365;52.162;4.500;2022-12-18T06:11:19;102701.78;;;-5.39;93.42
72685;BME280;61365;52.162;4.500;2022-12-18T06:13:52;102695.47;;;-5.34;92.80
72685;BME280;61365;52.162;4.500;2022-12-18T06:16:20;102696.91;;;-5.19;92.76
72685;BME280;61365;52.162;4.500;2022-12-18T06:18:47;102685.34;;;-5.24;92.02
72685;BME280;61365;52.162;4.500;2022-12-18T06:21:13;102681.53;;;-5.47;91.67
72685;BME280;61365;52.162;4.500;2022-12-18T06:23:39;102673.25;;;-5.16;90.75
72685;BME280;61365;52.162;4.500;2022-12-18T06:26:08;102680.06;;;-5.25;90.58
72685;BME280;61365;52.162;4.500;2022-12-18T06:28:38;102672.59;;;-5.42;91.35
72685;BME280;61365;52.162;4.500;2022-12-18T06:31:05;102675.56;;;-5.28;91.56
72685;BME280;61365;52.162;4.500;2022-12-18T06:33:32;102679.22;;;-5.35;91.48
72685;BME280;61365;52.162;4.500;2022-12-18T06:36:02;102667.50;;;-5.42;91.47
72685;BME280;61365;52.162;4.500;2022-12-18T06:38:34;102661.03;;;-5.38;90.74
72685;BME280;61365;52.162;4.500;2022-12-18T06:41:16;102651.44;;;-5.49;91.51
72685;BME280;61365;52.162;4.500;2022-12-18T06:43:44;102656.69;;;-5.48;90.51
72685;BME280;61365;52.162;4.500;2022-12-18T06:46:11;102658.34;;;-5.48;91.26
72685;BME280;61365;52.162;4.500;2022-12-18T06:48:38;102642.41;;;-5.54;91.16
72685;BME280;61365;52.162;4.500;2022-12-18T06:51:05;102650.16;;;-5.72;90.74
72685;BME280;61365;52.162;4.500;2022-12-18T06:53:32;102639.31;;;-5.61;91.33
72685;BME280;61365;52.162;4.500;2022-12-18T06:56:03;102641.16;;;-5.77;90.72
72685;BME280;61365;52.162;4.500;2022-12-18T06:58:32;102640.09;;;-5.79;90.74
72685;BME280;61365;52.162;4.500;2022-12-18T07:01:04;102637.03;;;-5.58;90.14
72685;BME280;61365;52.162;4.500;2022-12-18T07:03:31;102632.22;;;-5.63;89.83
72685;BME280;61365;52.162;4.500;2022-12-18T07:05:58;102627.78;;;-5.75;90.29
72685;BME280;61365;52.162;4.500;2022-12-18T07:08:24;102627.22;;;-5.90;90.04
72685;BME280;61365;52.162;4.500;2022-12-18T07:10:51;102622.63;;;-5.66;89.63
72685;BME280;61365;52.162;4.500;2022-12-18T07:13:18;102629.31;;;-5.85;88.82
72685;BME280;61365;52.162;4.500;2022-12-18T07:15:45;102625.06;;;-5.76;89.40
72685;BME280;61365;52.162;4.500;2022-12-18T07:18:11;102608.13;;;-5.84;89.59
72685;BME280;61365;52.162;4.500;2022-12-18T07:20:38;102594.28;;;-5.86;88.85
72685;BME280;61365;52.162;4.500;2022-12-18T07:23:05;102591.25;;;-5.82;88.21
72685;BME280;61365;52.162;4.500;2022-12-18T07:25:35;102586.50;;;-5.97;90.11
72685;BME280;61365;52.162;4.500;2022-12-18T07:28:03;102569.28;;;-6.08;89.22
72685;BME280;61365;52.162;4.500;2022-12-18T07:30:30;102565.69;;;-5.82;89.02
72685;BME280;61365;52.162;4.500;2022-12-18T07:32:56;102558.84;;;-5.73;88.07
72685;BME280;61365;52.162;4.500;2022-12-18T07:35:22;102558.75;;;-6.03;88.78
72685;BME280;61365;52.162;4.500;2022-12-18T07:37:49;102557.22;;;-6.00;89.42
72685;BME280;61365;52.162;4.500;2022-12-18T07:40:15;102557.22;;;-6.00;88.92
72685;BME280;61365;52.162;4.500;2022-12-18T07:42:42;102556.66;;;-6.07;89.13
72685;BME280;61365;52.162;4.500;2022-12-18T07:45:08;102567.72;;;-5.97;88.51
72685;BME280;61365;52.162;4.500;2022-12-18T07:47:35;102554.13;;;-5.88;89.19
72685;BME280;61365;52.162;4.500;2022-12-18T07:50:03;102564.19;;;-5.80;88.00
72685;BME280;61365;52.162;4.500;2022-12-18T07:52:31;102581.13;;;-6.00;88.71
72685;BME280;61365;52.162;4.500;2022-12-18T07:54:57;102571.06;;;-5.79;88.58
72685;BME280;61365;52.162;4.500;2022-12-18T07:57:24;102574.59;;;-5.88;88.23
72685;BME280;61365;52.162;4.500;2022-12-18T07:59:50;102573.06;;;-5.85;87.54
72685;BME280;61365;52.162;4.500;2022-12-18T08:02:16;102581.50;;;-5.86;87.88
72685;BME280;61365;52.162;4.500;2022-12-18T08:04:42;102576.84;;;-5.91;87.65
72685;BME280;61365;52.162;4.500;2022-12-18T08:07:09;102572.84;;;-5.69;87.98
72685;BME280;61365;52.162;4.500;2022-12-18T08:09:35;102567.88;;;-5.68;87.89
72685;BME280;61365;52.162;4.500;2022-12-18T08:12:02;102571.66;;;-5.73;87.67
72685;BME280;61365;52.162;4.500;2022-12-18T08:14:28;102563.38;;;-5.70;87.72
72685;BME280;61365;52.162;4.500;2022-12-18T08:16:55;102551.66;;;-5.77;88.00
72685;BME280;61365;52.162;4.500;2022-12-18T08:19:21;102553.97;;;-5.61;88.41
72685;BME280;61365;52.162;4.500;2022-12-18T08:21:47;102553.75;;;-5.73;88.27
72685;BME280;61365;52.162;4.500;2022-12-18T08:24:14;102535.66;;;-5.94;87.70
72685;BME280;61365;52.162;4.500;2022-12-18T08:26:40;102553.78;;;-5.54;87.51
72685;BME280;61365;52.162;4.500;2022-12-18T08:29:07;102557.50;;;-5.69;87.99
72685;BME280;61365;52.162;4.500;2022-12-18T08:31:34;102556.63;;;-5.51;88.02
72685;BME280;61365;52.162;4.500;2022-12-18T08:34:00;102551.38;;;-5.52;87.78
72685;BME280;61365;52.162;4.500;2022-12-18T08:36:27;102556.69;;;-5.40;86.74
72685;BME280;61365;52.162;4.500;2022-12-18T08:38:54;102564.31;;;-5.51;86.99
72685;BME280;61365;52.162;4.500;2022-12-18T08:41:21;102576.94;;;-5.52;86.50
72685;BME280;61365;52.162;4.500;2022-12-18T08:43:47;102592.75;;;-5.48;87.39
72685;BME280;61365;52.162;4.500;2022-12-18T08:46:38;102600.31;;;-5.30;86.54
72685;BME280;61365;52.162;4.500;2022-12-18T08:49:06;102598.97;;;-5.35;86.71
72685;BME280;61365;52.162;4.500;2022-12-18T08:51:34;102585.78;;;-5.40;86.87
72685;BME280;61365;52.162;4.500;2022-12-18T08:54:02;102571.28;;;-5.31;86.27
72685;BME280;61365;52.162;4.500;2022-12-18T08:56:30;102576.75;;;-5.45;87.60
72685;BME280;61365;52.162;4.500;2022-12-18T08:58:57;102589.44;;;-5.28;87.30
72685;BME280;61365;52.162;4.500;2022-12-18T09:01:24;102601.22;;;-5.30;86.44
72685;BME280;61365;52.162;4.500;2022-12-18T09:03:50;102596.38;;;-5.07;85.90
72685;BME280;61365;52.162;4.500;2022-12-18T09:06:19;102599.66;;;-5.28;86.70
72685;BME280;61365;52.162;4.500;2022-12-18T09:08:47;102586.66;;;-5.39;86.60
72685;BME280;61365;52.162;4.500;2022-12-18T09:11:25;102576.56;;;-5.38;87.10
72685;BME280;61365;52.162;4.500;2022-12-18T09:13:53;102582.72;;;-5.17;86.77
72685;BME280;61365;52.162;4.500;2022-12-18T09:16:20;102579.78;;;-5.02;86.74
72685;BME280;61365;52.162;4.500;2022-12-18T09:18:48;102564.25;;;-5.04;86.36
72685;BME280;61365;52.162;4.500;2022-12-18T09:21:19;102556.75;;;-5.02;86.26
72685;BME280;61365;52.162;4.500;2022-12-18T09:23:50;102538.91;;;-4.92;85.52
72685;BME280;61365;52.162;4.500;2022-12-18T09:26:18;102535.97;;;-5.05;85.79
72685;BME280;61365;52.162;4.500;2022-12-18T09:28:44;102543.75;;;-4.95;85.94
72685;BME280;61365;52.162;4.500;2022-12-18T09:31:12;102550.34;;;-4.78;86.00
72685;BME280;61365;52.162;4.500;2022-12-18T09:33:41;102552.94;;;-4.97;86.13
72685;BME280;61365;52.162;4.500;2022-12-18T09:36:09;102547.47;;;-4.91;85.87
72685;BME280;61365;52.162;4.500;2022-12-18T09:38:38;102549.38;;;-4.89;86.08
72685;BME280;61365;52.162;4.500;2022-12-18T09:44:21;102537.53;;;-4.78;85.65
72685;BME280;61365;52.162;4.500;2022-12-18T09:49:37;102546.06;;;-4.88;85.46
72685;BME280;61365;52.162;4.500;2022-12-18T09:54:53;102540.25;;;-4.76;85.65
72685;BME280;61365;52.162;4.500;2022-12-18T09:57:25;102541.78;;;-4.78;85.34
72685;BME280;61365;52.162;4.500;2022-12-18T10:00:14;102525.25;;;-4.53;85.13
72685;BME280;61365;52.162;4.500;2022-12-18T10:02:44;102527.56;;;-4.75;85.41
72685;BME280;61365;52.162;4.500;2022-12-18T10:05:14;102535.34;;;-4.84;85.83
72685;BME280;61365;52.162;4.500;2022-12-18T10:07:57;102534.00;;;-4.70;84.91
72685;BME280;61365;52.162;4.500;2022-12-18T10:10:52;102529.22;;;-4.56;84.77
72685;BME280;61365;52.162;4.500;2022-12-18T10:13:42;102524.09;;;-4.56;85.30
72685;BME280;61365;52.162;4.500;2022-12-18T10:16:21;102531.31;;;-4.71;85.30
72685;BME280;61365;52.162;4.500;2022-12-18T10:19:23;102535.28;;;-4.45;84.95
72685;BME280;61365;52.162;4.500;2022-12-18T10:22:11;102520.50;;;-4.48;86.08
72685;BME280;61365;52.162;4.500;2022-12-18T10:25:09;102519.19;;;-4.24;85.25
72685;BME280;61365;52.162;4.500;2022-12-18T10:27:40;102517.22;;;-4.37;84.97
72685;BME280;61365;52.162;4.500;2022-12-18T10:30:15;102502.63;;;-4.38;84.88
72685;BME280;61365;52.162;4.500;2022-12-18T10:32:43;102500.47;;;-4.23;84.86
72685;BME280;61365;52.162;4.500;2022-12-18T10:35:28;102483.16;;;-4.25;84.55
72685;BME280;61365;52.162;4.500;2022-12-18T10:43:32;102489.06;;;-4.16;84.41
72685;BME280;61365;52.162;4.500;2022-12-18T10:48:57;102488.19;;;-4.06;83.85
72685;BME280;61365;52.162;4.500;2022-12-18T10:51:27;102495.00;;;-3.96;83.74
72685;BME280;61365;52.162;4.500;2022-12-18T10:54:01;102495.91;;;-3.96;84.17
72685;BME280;61365;52.162;4.500;2022-12-18T10:56:33;102488.59;;;-3.91;84.30
72685;BME280;61365;52.162;4.500;2022-12-18T10:59:07;102485.66;;;-3.96;84.21
72685;BME280;61365;52.162;4.500;2022-12-18T11:04:21;102483.84;;;-3.97;83.94
72685;BME280;61365;52.162;4.500;2022-12-18T11:09:34;102491.28;;;-4.00;84.55
72685;BME280;61365;52.162;4.500;2022-12-18T11:12:18;102474.34;;;-3.87;84.50
72685;BME280;61365;52.162;4.500;2022-12-18T11:14:52;102480.63;;;-3.73;84.34
72685;BME280;61365;52.162;4.500;2022-12-18T11:17:29;102478.59;;;-3.88;84.52
72685;BME280;61365;52.162;4.500;2022-12-18T11:20:05;102476.81;;;-3.89;85.21
72685;BME280;61365;52.162;4.500;2022-12-18T11:22:58;102471.28;;;-3.63;84.44
72685;BME280;61365;52.162;4.500;2022-12-18T11:25:31;102461.53;;;-3.77;84.16
72685;BME280;61365;52.162;4.500;2022-12-18T11:28:03;102453.84;;;-3.67;83.90
72685;BME280;61365;52.162;4.500;2022-12-18T11:30:35;102443.22;;;-3.82;84.74
72685;BME280;61365;52.162;4.500;2022-12-18T11:33:06;102440.22;;;-3.66;84.41
72685;BME280;61365;52.162;4.500;2022-12-18T11:36:00;102432.66;;;-3.64;84.32
72685;BME280;61365;52.162;4.500;2022-12-18T11:38:38;102432.00;;;-3.62;83.83
72685;BME280;61365;52.162;4.500;2022-12-18T11:41:16;102431.50;;;-3.47;83.88
72685;BME280;61365;52.162;4.500;2022-12-18T11:43:53;102412.00;;;-3.55;83.88
72685;BME280;61365;52.162;4.500;2022-12-18T11:46:52;102410.19;;;-3.56;84.04
72685;BME280;61365;52.162;4.500;2022-12-18T11:49:30;102397.63;;;-3.64;84.07
72685;BME280;61365;52.162;4.500;2022-12-18T11:52:14;102378.63;;;-3.55;84.29
72685;BME280;61365;52.162;4.500;2022-12-18T11:54:51;102378.13;;;-3.51;84.76
72685;BME280;61365;52.162;4.500;2022-12-18T11:57:35;102387.19;;;-3.44;84.78
72685;BME280;61365;52.162;4.500;2022-12-18T12:00:24;102382.16;;;-3.33;85.25
72685;BME280;61365;52.162;4.500;2022-12-18T12:03:09;102372.13;;;-3.29;84.76
72685;BME280;61365;52.162;4.500;2022-12-18T12:11:28;102363.84;;;-3.15;83.62
72685;BME280;61365;52.162;4.500;2022-12-18T12:17:21;102358.88;;;-3.24;83.71
72685;BME280;61365;52.162;4.500;2022-12-18T12:20:22;102363.31;;;-3.11;83.67
72685;BME280;61365;52.162;4.500;2022-12-18T12:23:09;102363.22;;;-3.12;82.79
72685;BME280;61365;52.162;4.500;2022-12-18T12:25:50;102355.00;;;-3.08;83.37
72685;BME280;61365;52.162;4.500;2022-12-18T12:28:46;102361.22;;;-2.94;83.20
72685;BME280;61365;52.162;4.500;2022-12-18T12:34:22;102346.97;;;-3.01;82.91
72685;BME280;61365;52.162;4.500;2022-12-18T12:39:50;102335.72;;;-3.03;82.88
72685;BME280;61365;52.162;4.500;2022-12-18T12:42:38;102333.91;;;-3.04;83.08
72685;BME280;61365;52.162;4.500;2022-12-18T12:45:35;102330.16;;;-2.97;83.44
72685;BME280;61365;52.162;4.500;2022-12-18T12:48:16;102325.88;;;-2.97;83.51
72685;BME280;61365;52.162;4.500;2022-12-18T12:51:18;102325.25;;;-2.94;82.90
72685;BME280;61365;52.162;4.500;2022-12-18T12:53:47;102326.66;;;-2.98;83.18
72685;BME280;61365;52.162;4.500;2022-12-18T12:56:17;102314.97;;;-2.94;83.85
72685;BME280;61365;52.162;4.500;2022-12-18T13:02:14;102308.34;;;-2.80;82.93
72685;BME280;61365;52.162;4.500;2022-12-18T13:07:55;102300.16;;;-2.87;83.70
72685;BME280;61365;52.162;4.500;2022-12-18T13:10:32;102301.28;;;-2.83;83.48
72685;BME280;61365;52.162;4.500;2022-12-18T13:13:09;102287.88;;;-2.79;83.34
72685;BME280;61365;52.162;4.500;2022-12-18T13:16:08;102284.47;;;-2.67;83.34
72685;BME280;61365;52.162;4.500;2022-12-18T13:18:36;102285.78;;;-2.73;83.16
72685;BME280;61365;52.162;4.500;2022-12-18T13:21:13;102278.09;;;-2.73;83.70
72685;BME280;61365;52.162;4.500;2022-12-18T13:23:51;102275.94;;;-2.78;82.87
72685;BME280;61365;52.162;4.500;2022-12-18T13:34:23;102247.34;;;-2.71;83.34
72685;BME280;61365;52.162;4.500;2022-12-18T13:36:53;102233.38;;;-2.75;83.51
72685;BME280;61365;52.162;4.500;2022-12-18T13:39:22;102234.09;;;-2.65;82.98
72685;BME280;61365;52.162;4.500;2022-12-18T13:41:52;102218.09;;;-2.61;83.55
72685;BME280;61365;52.162;4.500;2022-12-18T13:44:38;102222.13;;;-2.65;83.63
72685;BME280;61365;52.162;4.500;2022-12-18T13:47:34;102218.09;;;-2.61;83.98
72685;BME280;61365;52.162;4.500;2022-12-18T13:50:26;102217.91;;;-2.52;83.28
72685;BME280;61365;52.162;4.500;2022-12-18T13:52:52;102212.53;;;-2.55;83.43
72685;BME280;61365;52.162;4.500;2022-12-18T13:55:20;102207.25;;;-2.69;83.78
72685;BME280;61365;52.162;4.500;2022-12-18T13:57:48;102208.22;;;-2.33;82.03
72685;BME280;61365;52.162;4.500;2022-12-18T14:00:27;102207.97;;;-2.48;83.01
72685;BME280;61365;52.162;4.500;2022-12-18T14:02:56;102196.13;;;-2.46;82.69
72685;BME280;61365;52.162;4.500;2022-12-18T14:05:37;102204.47;;;-2.48;82.71
72685;BME280;61365;52.162;4.500;2022-12-18T14:08:07;102198.81;;;-2.32;81.77
72685;BME280;61365;52.162;4.500;2022-12-18T14:10:47;102198.47;;;-2.37;82.53
72685;BME280;61365;52.162;4.500;2022-12-18T14:13:30;102189.97;;;-2.24;82.11
72685;BME280;61365;52.162;4.500;2022-12-18T14:16:04;102176.81;;;-2.17;81.42
72685;BME280;61365;52.162;4.500;2022-12-18T14:18:45;102177.91;;;-2.25;82.22
72685;BME280;61365;52.162;4.500;2022-12-18T14:21:28;102171.44;;;-2.32;82.53
72685;BME280;61365;52.162;4.500;2022-12-18T14:24:13;102162.94;;;-2.31;82.96
72685;BME280;61365;52.162;4.500;2022-12-18T14:26:46;102170.88;;;-2.28;83.10
72685;BME280;61365;52.162;4.500;2022-12-18T14:29:27;102174.00;;;-2.32;82.95
72685;BME280;61365;52.162;4.500;2022-12-18T14:32:24;102167.06;;;-2.33;83.03
72685;BME280;61365;52.162;4.500;2022-12-18T14:34:52;102168.72;;;-2.33;83.04
72685;BME280;61365;52.162;4.500;2022-12-18T14:37:24;102169.63;;;-2.21;83.03
72685;BME280;61365;52.162;4.500;2022-12-18T14:39:57;102157.34;;;-2.25;82.40
72685;BME280;61365;52.162;4.500;2022-12-18T14:42:26;102153.06;;;-2.24;82.44
72685;BME280;61365;52.162;4.500;2022-12-18T14:48:07;102140.22;;;-2.24;83.10
72685;BME280;61365;52.162;4.500;2022-12-18T14:50:37;102136.63;;;-2.27;82.61
72685;BME280;61365;52.162;4.500;2022-12-18T14:53:18;102118.38;;;-1.94;81.27